sensor_id;sensor_type;location;lat;lon;timestamp;temperature;humidity
15217;DHT22;7711;46.634;14.318;2022-07-05T00:00:58;18.80;99.90
15217;DHT22;7711;46.634;14.318;2022-07-05T00:03:26;18.80;99.90
15217;DHT22;7711;46.634;14.318;2022-07-05T00:05:54;18.80;99.90
15217;DHT22;7711;46.634;14.318;2022-07-05T00:08:21;18.90;99.90
15217;DHT22;7711;46.634;14.318;2022-07-05T00:10:50;18.90;99.90
15217;DHT22;7711;46.634;14.318;2022-07-05T00:13:18;18.80;99.90
15217;DHT22;7711;46.634;14.318;2022-07-05T00:15:45;18.80;99.90
15217;DHT22;7711;46.634;14.318;2022-07-05T00:18:14;18.80;99.90
15217;DHT22;7711;46.634;14.318;2022-07-05T00:20:41;18.80;99.90
15217;DHT22;7711;46.634;14.318;2022-07-05T00:23:11;18.80;99.90
15217;DHT22;7711;46.634;14.318;2022-07-05T00:25:38;18.80;99.90
15217;DHT22;7711;46.634;14.318;2022-07-05T00:28:06;18.80;99.90
15217;DHT22;7711;46.634;14.318;2022-07-05T00:30:36;18.80;99.90
15217;DHT22;7711;46.634;14.318;2022-07-05T00:33:09;18.70;99.90
15217;DHT22;7711;46.634;14.318;2022-07-05T00:35:38;18.60;99.90
15217;DHT22;7711;46.634;14.318;2022-07-05T00:38:05;18.60;99.90
15217;DHT22;7711;46.634;14.318;2022-07-05T00:40:33;18.60;99.90
15217;DHT22;7711;46.634;14.318;2022-07-05T00:43:01;18.50;99.90
15217;DHT22;7711;46.634;14.318;2022-07-05T00:45:28;18.50;99.90
15217;DHT22;7711;46.634;14.318;2022-07-05T00:47:56;18.50;99.90
15217;DHT22;7711;46.634;14.318;2022-07-05T00:50:25;18.40;99.90
15217;DHT22;7711;46.634;14.318;2022-07-05T00:52:56;18.40;99.90
15217;DHT22;7711;46.634;14.318;2022-07-05T00:55:24;18.40;99.90
15217;DHT22;7711;46.634;14.318;2022-07-05T00:57:54;18.30;99.90
15217;DHT22;7711;46.634;14.318;2022-07-05T01:00:24;18.30;99.90
15217;DHT22;7711;46.634;14.318;2022-07-05T01:02:52;18.30;99.90
15217;DHT22;7711;46.634;14.318;2022-07-05T01:05:20;18.30;99.90
15217;DHT22;7711;46.634;14.318;2022-07-05T01:07:50;18.30;99.90
15217;DHT22;7711;46.634;14.318;2022-07-05T01:10:20;18.20;99.90
15217;DHT22;7711;46.634;14.318;2022-07-05T01:12:50;18.10;99.90
15217;DHT22;7711;46.634;14.318;2022-07-05T01:15:21;18.10;99.90
15217;DHT22;7711;46.634;14.318;2022-07-05T01:17:49;18.20;99.90
15217;DHT22;7711;46.634;14.318;2022-07-05T01:20:16;18.20;99.90
15217;DHT22;7711;46.634;14.318;2022-07-05T01:22:55;18.20;99.90
15217;DHT22;7711;46.634;14.318;2022-07-05T01:25:23;18.20;99.90
15217;DHT22;7711;46.634;14.318;2022-07-05T01:27:51;18.30;99.90
15217;DHT22;7711;46.634;14.318;2022-07-05T01:30:21;18.20;99.90
15217;DHT22;7711;46.634;14.318;2022-07-05T01:32:51;18.30;99.90
15217;DHT22;7711;46.634;14.318;2022-07-05T01:35:22;18.20;99.90
15217;DHT22;7711;46.634;14.318;2022-07-05T01:37:51;18.30;99.90
15217;DHT22;7711;46.634;14.318;2022-07-05T01:40:20;18.30;99.90
15217;DHT22;7711;46.634;14.318;2022-07-05T01:42:50;18.20;99.90
15217;DHT22;7711;46.634;14.318;2022-07-05T01:45:18;18.20;99.90
15217;DHT22;7711;46.634;14.318;2022-07-05T01:48:01;18.30;99.90
15217;DHT22;7711;46.634;14.318;2022-07-05T01:50:29;18.30;99.90
15217;DHT22;7711;46.634;14.318;2022-07-05T01:52:56;18.30;99.90
15217;DHT22;7711;46.634;14.318;2022-07-05T01:55:27;18.30;99.90
15217;DHT22;7711;46.634;14.318;2022-07-05T01:57:55;18.30;99.90
15217;DHT22;7711;46.634;14.318;2022-07-05T02:00:22;18.20;99.90
15217;DHT22;7711;46.634;14.318;2022-07-05T02:02:49;18.20;99.90
15217;DHT22;7711;46.634;14.318;2022-07-05T02:05:17;18.20;99.90
15217;DHT22;7711;46.634;14.318;2022-07-05T02:07:47;18.20;99.90
15217;DHT22;7711;46.634;14.318;2022-07-05T02:10:15;18.20;99.90
15217;DHT22;7711;46.634;14.318;2022-07-05T02:12:44;18.20;99.90
15217;DHT22;7711;46.634;14.318;2022-07-05T02:15:11;18.20;99.90
15217;DHT22;7711;46.634;14.318;2022-07-05T02:17:38;18.20;99.90
15217;DHT22;7711;46.634;14.318;2022-07-05T02:20:06;18.20;99.90
15217;DHT22;7711;46.634;14.318;2022-07-05T02:22:33;18.20;99.90
15217;DHT22;7711;46.634;14.318;2022-07-05T02:25:01;18.10;99.90
15217;DHT22;7711;46.634;14.318;2022-07-05T02:27:28;18.10;99.90
15217;DHT22;7711;46.634;14.318;2022-07-05T02:29:56;18.10;99.90
15217;DHT22;7711;46.634;14.318;2022-07-05T02:32:24;18.10;99.90
15217;DHT22;7711;46.634;14.318;2022-07-05T02:34:51;18.10;99.90
15217;DHT22;7711;46.634;14.318;2022-07-05T02:37:18;18.00;99.90
15217;DHT22;7711;46.634;14.318;2022-07-05T02:39:45;18.10;99.90
15217;DHT22;7711;46.634;14.318;2022-07-05T02:42:12;18.00;99.90
15217;DHT22;7711;46.634;14.318;2022-07-05T02:44:39;18.10;99.90
15217;DHT22;7711;46.634;14.318;2022-07-05T02:47:08;18.00;99.90
15217;DHT22;7711;46.634;14.318;2022-07-05T02:49:35;18.00;99.90
15217;DHT22;7711;46.634;14.318;2022-07-05T02:52:03;18.00;99.90
15217;DHT22;7711;46.634;14.318;2022-07-05T02:54:31;18.00;99.90
15217;DHT22;7711;46.634;14.318;2022-07-05T02:56:59;17.90;99.90
15217;DHT22;7711;46.634;14.318;2022-07-05T02:59:27;17.90;99.90
15217;DHT22;7711;46.634;14.318;2022-07-05T03:01:55;17.90;99.90
15217;DHT22;7711;46.634;14.318;2022-07-05T03:04:24;17.80;99.90
15217;DHT22;7711;46.634;14.318;2022-07-05T03:06:51;17.70;99.90
15217;DHT22;7711;46.634;14.318;2022-07-05T03:09:18;17.70;99.90
15217;DHT22;7711;46.634;14.318;2022-07-05T03:11:46;17.80;99.90
15217;DHT22;7711;46.634;14.318;2022-07-05T03:14:14;17.80;99.90
15217;DHT22;7711;46.634;14.318;2022-07-05T03:16:42;17.80;99.90
15217;DHT22;7711;46.634;14.318;2022-07-05T03:19:12;17.80;99.90
15217;DHT22;7711;46.634;14.318;2022-07-05T03:21:40;17.80;99.90
15217;DHT22;7711;46.634;14.318;2022-07-05T03:24:08;17.80;99.90
15217;DHT22;7711;46.634;14.318;2022-07-05T03:26:35;17.70;99.90
15217;DHT22;7711;46.634;14.318;2022-07-05T03:29:04;17.70;99.90
15217;DHT22;7711;46.634;14.318;2022-07-05T03:31:31;17.70;99.90
15217;DHT22;7711;46.634;14.318;2022-07-05T03:33:58;17.80;99.90
15217;DHT22;7711;46.634;14.318;2022-07-05T03:36:26;17.70;99.90
15217;DHT22;7711;46.634;14.318;2022-07-05T03:38:54;17.70;99.90
15217;DHT22;7711;46.634;14.318;2022-07-05T03:41:23;17.70;99.90
15217;DHT22;7711;46.634;14.318;2022-07-05T03:43:50;17.70;99.90
15217;DHT22;7711;46.634;14.318;2022-07-05T03:46:17;17.80;99.90
15217;DHT22;7711;46.634;14.318;2022-07-05T03:48:45;17.70;99.90
15217;DHT22;7711;46.634;14.318;2022-07-05T03:51:12;17.80;99.90
15217;DHT22;7711;46.634;14.318;2022-07-05T03:53:41;17.90;99.90
15217;DHT22;7711;46.634;14.318;2022-07-05T03:56:10;17.90;99.90
15217;DHT22;7711;46.634;14.318;2022-07-05T03:58:40;17.90;99.90
15217;DHT22;7711;46.634;14.318;2022-07-05T04:01:10;17.90;99.90
15217;DHT22;7711;46.634;14.318;2022-07-05T04:03:37;17.90;99.90
15217;DHT22;7711;46.634;14.318;2022-07-05T04:06:04;18.00;99.90
15217;DHT22;7711;46.634;14.318;2022-07-05T04:08:34;18.00;99.90
15217;DHT22;7711;46.634;14.318;2022-07-05T04:11:03;18.10;99.90
15217;DHT22;7711;46.634;14.318;2022-07-05T04:13:35;18.00;99.90
15217;DHT22;7711;46.634;14.318;2022-07-05T04:16:04;18.00;99.90
15217;DHT22;7711;46.634;14.318;2022-07-05T04:18:31;18.00;99.90
15217;DHT22;7711;46.634;14.318;2022-07-05T04:20:58;18.00;99.90
15217;DHT22;7711;46.634;14.318;2022-07-05T04:23:27;18.00;99.90
15217;DHT22;7711;46.634;14.318;2022-07-05T04:25:55;17.90;99.90
15217;DHT22;7711;46.634;14.318;2022-07-05T04:28:22;17.90;99.90
15217;DHT22;7711;46.634;14.318;2022-07-05T04:30:51;17.90;99.90
15217;DHT22;7711;46.634;14.318;2022-07-05T04:33:18;18.00;99.90
15217;DHT22;7711;46.634;14.318;2022-07-05T04:35:45;18.00;99.90
15217;DHT22;7711;46.634;14.318;2022-07-05T04:38:14;18.10;99.90
15217;DHT22;7711;46.634;14.318;2022-07-05T04:40:42;18.10;99.90
15217;DHT22;7711;46.634;14.318;2022-07-05T04:43:09;18.10;99.90
15217;DHT22;7711;46.634;14.318;2022-07-05T04:45:36;18.10;99.90
15217;DHT22;7711;46.634;14.318;2022-07-05T04:48:05;18.10;99.90
15217;DHT22;7711;46.634;14.318;2022-07-05T04:50:32;18.00;99.90
15217;DHT22;7711;46.634;14.318;2022-07-05T04:53:00;18.10;99.90
15217;DHT22;7711;46.634;14.318;2022-07-05T04:55:27;18.00;99.90
15217;DHT22;7711;46.634;14.318;2022-07-05T04:57:54;18.00;99.90
15217;DHT22;7711;46.634;14.318;2022-07-05T05:00:21;18.10;99.90
15217;DHT22;7711;46.634;14.318;2022-07-05T05:02:49;18.00;99.90
15217;DHT22;7711;46.634;14.318;2022-07-05T05:05:19;18.10;99.90
15217;DHT22;7711;46.634;14.318;2022-07-05T05:07:47;18.10;99.90
15217;DHT22;7711;46.634;14.318;2022-07-05T05:10:16;18.10;99.90
15217;DHT22;7711;46.634;14.318;2022-07-05T05:12:45;18.20;99.90
15217;DHT22;7711;46.634;14.318;2022-07-05T05:15:14;18.20;99.90
15217;DHT22;7711;46.634;14.318;2022-07-05T05:17:42;18.20;99.90
15217;DHT22;7711;46.634;14.318;2022-07-05T05:20:12;18.10;99.90
15217;DHT22;7711;46.634;14.318;2022-07-05T05:22:41;18.20;99.90
15217;DHT22;7711;46.634;14.318;2022-07-05T05:25:10;18.30;99.90
15217;DHT22;7711;46.634;14.318;2022-07-05T05:27:41;18.40;99.90
15217;DHT22;7711;46.634;14.318;2022-07-05T05:30:09;18.40;99.90
15217;DHT22;7711;46.634;14.318;2022-07-05T05:32:36;18.50;99.90
15217;DHT22;7711;46.634;14.318;2022-07-05T05:35:05;18.60;99.90
15217;DHT22;7711;46.634;14.318;2022-07-05T05:37:47;18.60;99.90
15217;DHT22;7711;46.634;14.318;2022-07-05T05:40:14;18.70;99.90
15217;DHT22;7711;46.634;14.318;2022-07-05T05:42:42;18.70;99.90
15217;DHT22;7711;46.634;14.318;2022-07-05T05:45:10;18.80;99.90
15217;DHT22;7711;46.634;14.318;2022-07-05T05:47:48;18.90;99.90
15217;DHT22;7711;46.634;14.318;2022-07-05T05:50:20;19.00;99.90
15217;DHT22;7711;46.634;14.318;2022-07-05T05:52:49;19.00;99.90
15217;DHT22;7711;46.634;14.318;2022-07-05T05:55:20;19.20;99.90
15217;DHT22;7711;46.634;14.318;2022-07-05T05:57:49;19.00;99.90
15217;DHT22;7711;46.634;14.318;2022-07-05T06:00:18;19.00;99.90
15217;DHT22;7711;46.634;14.318;2022-07-05T06:02:46;18.80;99.90
15217;DHT22;7711;46.634;14.318;2022-07-05T06:05:13;18.90;99.90
15217;DHT22;7711;46.634;14.318;2022-07-05T06:07:45;19.20;99.90
15217;DHT22;7711;46.634;14.318;2022-07-05T06:10:17;19.40;99.90
15217;DHT22;7711;46.634;14.318;2022-07-05T06:12:46;19.50;99.90
15217;DHT22;7711;46.634;14.318;2022-07-05T06:15:13;19.70;99.90
15217;DHT22;7711;46.634;14.318;2022-07-05T06:17:40;19.70;99.90
15217;DHT22;7711;46.634;14.318;2022-07-05T06:20:09;19.70;99.90
15217;DHT22;7711;46.634;14.318;2022-07-05T06:22:37;19.70;99.90
15217;DHT22;7711;46.634;14.318;2022-07-05T06:25:05;19.90;99.90
15217;DHT22;7711;46.634;14.318;2022-07-05T06:27:39;19.80;99.90
15217;DHT22;7711;46.634;14.318;2022-07-05T06:30:07;19.80;99.90
15217;DHT22;7711;46.634;14.318;2022-07-05T06:32:35;19.90;99.90
15217;DHT22;7711;46.634;14.318;2022-07-05T06:35:02;20.10;99.90
15217;DHT22;7711;46.634;14.318;2022-07-05T06:37:40;20.30;99.90
15217;DHT22;7711;46.634;14.318;2022-07-05T06:40:09;20.60;99.90
15217;DHT22;7711;46.634;14.318;2022-07-05T06:42:41;20.20;99.90
15217;DHT22;7711;46.634;14.318;2022-07-05T06:45:11;20.00;99.90
15217;DHT22;7711;46.634;14.318;2022-07-05T06:47:39;20.70;99.90
15217;DHT22;7711;46.634;14.318;2022-07-05T06:50:07;21.10;99.90
15217;DHT22;7711;46.634;14.318;2022-07-05T06:52:38;21.30;99.90
15217;DHT22;7711;46.634;14.318;2022-07-05T06:55:09;21.50;99.90
15217;DHT22;7711;46.634;14.318;2022-07-05T06:57:40;21.30;99.90
15217;DHT22;7711;46.634;14.318;2022-07-05T07:00:08;21.40;99.90
15217;DHT22;7711;46.634;14.318;2022-07-05T07:02:36;21.40;99.90
15217;DHT22;7711;46.634;14.318;2022-07-05T07:05:04;21.60;99.90
15217;DHT22;7711;46.634;14.318;2022-07-05T07:07:33;21.80;99.90
15217;DHT22;7711;46.634;14.318;2022-07-05T07:10:17;21.70;99.90
15217;DHT22;7711;46.634;14.318;2022-07-05T07:12:46;21.80;99.90
15217;DHT22;7711;46.634;14.318;2022-07-05T07:15:13;21.80;99.90
15217;DHT22;7711;46.634;14.318;2022-07-05T07:17:41;21.90;99.90
15217;DHT22;7711;46.634;14.318;2022-07-05T07:20:14;22.00;99.90
15217;DHT22;7711;46.634;14.318;2022-07-05T07:22:42;22.10;99.90
15217;DHT22;7711;46.634;14.318;2022-07-05T07:25:13;22.10;99.90
15217;DHT22;7711;46.634;14.318;2022-07-05T07:27:50;22.30;99.90
15217;DHT22;7711;46.634;14.318;2022-07-05T07:30:22;22.60;99.90
15217;DHT22;7711;46.634;14.318;2022-07-05T07:32:49;22.80;99.90
15217;DHT22;7711;46.634;14.318;2022-07-05T07:35:20;23.10;99.90
15217;DHT22;7711;46.634;14.318;2022-07-05T07:37:49;23.10;99.90
15217;DHT22;7711;46.634;14.318;2022-07-05T07:40:18;23.10;99.90
15217;DHT22;7711;46.634;14.318;2022-07-05T07:42:45;23.60;99.90
15217;DHT22;7711;46.634;14.318;2022-07-05T07:45:16;23.80;99.90
15217;DHT22;7711;46.634;14.318;2022-07-05T07:47:43;23.80;99.90
15217;DHT22;7711;46.634;14.318;2022-07-05T07:50:13;24.00;99.90
15217;DHT22;7711;46.634;14.318;2022-07-05T07:52:40;24.00;99.90
15217;DHT22;7711;46.634;14.318;2022-07-05T07:55:08;23.90;99.90
15217;DHT22;7711;46.634;14.318;2022-07-05T07:57:35;23.80;99.90
15217;DHT22;7711;46.634;14.318;2022-07-05T08:00:03;23.90;99.90
15217;DHT22;7711;46.634;14.318;2022-07-05T08:02:33;23.70;99.90
15217;DHT22;7711;46.634;14.318;2022-07-05T08:05:00;24.10;99.90
15217;DHT22;7711;46.634;14.318;2022-07-05T08:07:27;24.30;99.90
15217;DHT22;7711;46.634;14.318;2022-07-05T08:09:55;24.10;99.90
15217;DHT22;7711;46.634;14.318;2022-07-05T08:12:25;24.20;99.90
15217;DHT22;7711;46.634;14.318;2022-07-05T08:14:52;24.50;99.90
15217;DHT22;7711;46.634;14.318;2022-07-05T08:17:22;24.50;99.90
15217;DHT22;7711;46.634;14.318;2022-07-05T08:19:50;24.00;99.90
15217;DHT22;7711;46.634;14.318;2022-07-05T08:22:38;23.50;99.90
15217;DHT22;7711;46.634;14.318;2022-07-05T08:25:08;23.90;99.90
15217;DHT22;7711;46.634;14.318;2022-07-05T08:27:44;24.40;99.90
15217;DHT22;7711;46.634;14.318;2022-07-05T08:30:12;24.60;99.90
15217;DHT22;7711;46.634;14.318;2022-07-05T08:32:39;24.70;99.90
15217;DHT22;7711;46.634;14.318;2022-07-05T08:35:08;24.70;99.90
15217;DHT22;7711;46.634;14.318;2022-07-05T08:37:38;24.60;99.90
15217;DHT22;7711;46.634;14.318;2022-07-05T08:40:07;24.90;99.90
15217;DHT22;7711;46.634;14.318;2022-07-05T08:42:35;23.90;99.90
15217;DHT22;7711;46.634;14.318;2022-07-05T08:45:03;23.80;99.90
15217;DHT22;7711;46.634;14.318;2022-07-05T08:47:33;24.30;99.90
15217;DHT22;7711;46.634;14.318;2022-07-05T08:50:04;24.30;99.90
15217;DHT22;7711;46.634;14.318;2022-07-05T08:52:33;24.60;99.90
15217;DHT22;7711;46.634;14.318;2022-07-05T08:55:01;24.90;99.90
15217;DHT22;7711;46.634;14.318;2022-07-05T08:57:30;25.10;99.90
15217;DHT22;7711;46.634;14.318;2022-07-05T08:59:57;25.40;99.90
15217;DHT22;7711;46.634;14.318;2022-07-05T09:02:24;25.50;99.90
15217;DHT22;7711;46.634;14.318;2022-07-05T09:04:54;25.70;99.90
15217;DHT22;7711;46.634;14.318;2022-07-05T09:07:22;25.60;99.90
15217;DHT22;7711;46.634;14.318;2022-07-05T09:09:56;25.50;99.90
15217;DHT22;7711;46.634;14.318;2022-07-05T09:12:24;24.90;99.90
15217;DHT22;7711;46.634;14.318;2022-07-05T09:14:54;24.30;99.90
15217;DHT22;7711;46.634;14.318;2022-07-05T09:17:26;23.80;99.90
15217;DHT22;7711;46.634;14.318;2022-07-05T09:20:12;24.70;99.90
15217;DHT22;7711;46.634;14.318;2022-07-05T09:22:46;24.60;99.90
15217;DHT22;7711;46.634;14.318;2022-07-05T09:25:17;24.40;99.90
15217;DHT22;7711;46.634;14.318;2022-07-05T09:27:53;24.30;99.90
15217;DHT22;7711;46.634;14.318;2022-07-05T09:30:25;24.60;99.90
15217;DHT22;7711;46.634;14.318;2022-07-05T09:33:10;25.30;99.90
15217;DHT22;7711;46.634;14.318;2022-07-05T09:35:40;25.80;99.90
15217;DHT22;7711;46.634;14.318;2022-07-05T09:38:19;26.50;99.90
15217;DHT22;7711;46.634;14.318;2022-07-05T09:40:50;26.70;99.90
15217;DHT22;7711;46.634;14.318;2022-07-05T09:43:19;26.80;99.90
15217;DHT22;7711;46.634;14.318;2022-07-05T09:46:02;27.10;99.90
15217;DHT22;7711;46.634;14.318;2022-07-05T09:48:30;27.70;99.90
15217;DHT22;7711;46.634;14.318;2022-07-05T09:51:05;27.90;99.90
15217;DHT22;7711;46.634;14.318;2022-07-05T09:53:45;28.00;99.90
15217;DHT22;7711;46.634;14.318;2022-07-05T09:56:14;28.10;99.90
15217;DHT22;7711;46.634;14.318;2022-07-05T09:58:41;28.40;99.90
15217;DHT22;7711;46.634;14.318;2022-07-05T10:01:25;28.30;99.90
15217;DHT22;7711;46.634;14.318;2022-07-05T10:03:56;27.60;99.90
15217;DHT22;7711;46.634;14.318;2022-07-05T10:06:27;27.30;99.90
15217;DHT22;7711;46.634;14.318;2022-07-05T10:08:55;26.10;99.90
15217;DHT22;7711;46.634;14.318;2022-07-05T10:11:24;25.60;99.90
15217;DHT22;7711;46.634;14.318;2022-07-05T10:13:55;25.40;99.90
15217;DHT22;7711;46.634;14.318;2022-07-05T10:16:25;25.20;99.90
15217;DHT22;7711;46.634;14.318;2022-07-05T10:18:55;25.20;99.90
15217;DHT22;7711;46.634;14.318;2022-07-05T10:21:24;25.40;99.90
15217;DHT22;7711;46.634;14.318;2022-07-05T10:23:52;25.80;99.90
15217;DHT22;7711;46.634;14.318;2022-07-05T10:26:23;26.80;99.90
15217;DHT22;7711;46.634;14.318;2022-07-05T10:28:53;27.40;99.90
15217;DHT22;7711;46.634;14.318;2022-07-05T10:31:24;27.70;99.90
15217;DHT22;7711;46.634;14.318;2022-07-05T10:33:53;27.60;99.90
15217;DHT22;7711;46.634;14.318;2022-07-05T10:36:23;27.60;99.90
15217;DHT22;7711;46.634;14.318;2022-07-05T10:38:50;27.60;99.90
15217;DHT22;7711;46.634;14.318;2022-07-05T10:41:21;27.40;99.90
15217;DHT22;7711;46.634;14.318;2022-07-05T10:43:54;27.10;99.90
15217;DHT22;7711;46.634;14.318;2022-07-05T10:46:34;26.80;99.90
15217;DHT22;7711;46.634;14.318;2022-07-05T10:49:14;26.70;99.90
15217;DHT22;7711;46.634;14.318;2022-07-05T10:51:44;26.60;99.90
15217;DHT22;7711;46.634;14.318;2022-07-05T10:54:15;27.00;99.90
15217;DHT22;7711;46.634;14.318;2022-07-05T10:57:19;26.80;99.90
15217;DHT22;7711;46.634;14.318;2022-07-05T11:00:07;27.20;99.90
15217;DHT22;7711;46.634;14.318;2022-07-05T11:02:35;27.40;99.90
15217;DHT22;7711;46.634;14.318;2022-07-05T11:05:03;27.80;99.90
15217;DHT22;7711;46.634;14.318;2022-07-05T11:07:58;27.90;99.90
15217;DHT22;7711;46.634;14.318;2022-07-05T11:10:25;27.40;99.90
15217;DHT22;7711;46.634;14.318;2022-07-05T11:12:53;26.80;99.90
15217;DHT22;7711;46.634;14.318;2022-07-05T11:15:21;26.50;99.90
15217;DHT22;7711;46.634;14.318;2022-07-05T11:17:50;26.60;99.90
15217;DHT22;7711;46.634;14.318;2022-07-05T11:20:38;26.20;99.90
15217;DHT22;7711;46.634;14.318;2022-07-05T11:23:12;26.30;99.90
15217;DHT22;7711;46.634;14.318;2022-07-05T11:25:45;26.20;99.90
15217;DHT22;7711;46.634;14.318;2022-07-05T11:28:21;25.60;99.90
15217;DHT22;7711;46.634;14.318;2022-07-05T11:30:56;25.00;99.90
15217;DHT22;7711;46.634;14.318;2022-07-05T11:33:38;25.00;99.90
15217;DHT22;7711;46.634;14.318;2022-07-05T11:36:23;25.50;99.90
15217;DHT22;7711;46.634;14.318;2022-07-05T11:39:09;25.90;99.90
15217;DHT22;7711;46.634;14.318;2022-07-05T11:41:38;25.70;99.90
15217;DHT22;7711;46.634;14.318;2022-07-05T11:44:07;25.70;99.90
15217;DHT22;7711;46.634;14.318;2022-07-05T11:46:37;26.20;99.90
15217;DHT22;7711;46.634;14.318;2022-07-05T11:49:05;26.80;99.90
15217;DHT22;7711;46.634;14.318;2022-07-05T11:51:33;27.60;99.90
15217;DHT22;7711;46.634;14.318;2022-07-05T11:54:00;28.00;99.90
15217;DHT22;7711;46.634;14.318;2022-07-05T11:56:29;28.10;99.90
15217;DHT22;7711;46.634;14.318;2022-07-05T11:58:56;28.70;99.90
15217;DHT22;7711;46.634;14.318;2022-07-05T12:01:26;28.60;99.90
15217;DHT22;7711;46.634;14.318;2022-07-05T12:03:56;28.40;99.90
15217;DHT22;7711;46.634;14.318;2022-07-05T12:06:23;28.50;99.90
15217;DHT22;7711;46.634;14.318;2022-07-05T12:09:05;27.90;99.90
15217;DHT22;7711;46.634;14.318;2022-07-05T12:11:32;27.50;99.90
15217;DHT22;7711;46.634;14.318;2022-07-05T12:14:21;27.10;99.90
15217;DHT22;7711;46.634;14.318;2022-07-05T12:16:49;27.80;99.90
15217;DHT22;7711;46.634;14.318;2022-07-05T12:19:27;27.50;99.90
15217;DHT22;7711;46.634;14.318;2022-07-05T12:21:54;27.40;99.90
15217;DHT22;7711;46.634;14.318;2022-07-05T12:24:23;27.80;99.90
15217;DHT22;7711;46.634;14.318;2022-07-05T12:26:51;27.90;99.90
15217;DHT22;7711;46.634;14.318;2022-07-05T12:29:18;28.90;99.90
15217;DHT22;7711;46.634;14.318;2022-07-05T12:32:00;28.90;99.90
15217;DHT22;7711;46.634;14.318;2022-07-05T12:34:29;28.80;99.90
15217;DHT22;7711;46.634;14.318;2022-07-05T12:36:58;28.30;99.90
15217;DHT22;7711;46.634;14.318;2022-07-05T12:39:25;28.20;99.90
15217;DHT22;7711;46.634;14.318;2022-07-05T12:41:54;28.00;99.90
15217;DHT22;7711;46.634;14.318;2022-07-05T12:44:24;27.90;99.90
15217;DHT22;7711;46.634;14.318;2022-07-05T12:46:51;28.00;99.90
15217;DHT22;7711;46.634;14.318;2022-07-05T12:49:19;27.70;99.90
15217;DHT22;7711;46.634;14.318;2022-07-05T12:51:52;27.90;99.90
15217;DHT22;7711;46.634;14.318;2022-07-05T12:54:22;27.80;99.90
15217;DHT22;7711;46.634;14.318;2022-07-05T12:57:08;27.80;99.90
15217;DHT22;7711;46.634;14.318;2022-07-05T13:00:00;28.00;99.90
15217;DHT22;7711;46.634;14.318;2022-07-05T13:02:34;28.40;99.90
15217;DHT22;7711;46.634;14.318;2022-07-05T13:05:02;28.60;99.90
15217;DHT22;7711;46.634;14.318;2022-07-05T13:07:33;29.10;99.90
15217;DHT22;7711;46.634;14.318;2022-07-05T13:10:15;29.80;99.90
15217;DHT22;7711;46.634;14.318;2022-07-05T13:12:44;30.80;99.90
15217;DHT22;7711;46.634;14.318;2022-07-05T13:15:16;31.20;99.90
15217;DHT22;7711;46.634;14.318;2022-07-05T13:17:45;30.70;99.90
15217;DHT22;7711;46.634;14.318;2022-07-05T13:20:15;30.40;97.90
15217;DHT22;7711;46.634;14.318;2022-07-05T13:22:45;30.30;99.30
15217;DHT22;7711;46.634;14.318;2022-07-05T13:25:12;30.20;99.50
15217;DHT22;7711;46.634;14.318;2022-07-05T13:27:40;30.30;99.90
15217;DHT22;7711;46.634;14.318;2022-07-05T13:30:08;30.70;97.60
15217;DHT22;7711;46.634;14.318;2022-07-05T13:32:37;31.00;97.80
15217;DHT22;7711;46.634;14.318;2022-07-05T13:35:07;31.30;96.20
15217;DHT22;7711;46.634;14.318;2022-07-05T13:37:36;31.80;95.10
15217;DHT22;7711;46.634;14.318;2022-07-05T13:40:09;30.90;95.20
15217;DHT22;7711;46.634;14.318;2022-07-05T13:42:36;31.40;95.90
15217;DHT22;7711;46.634;14.318;2022-07-05T13:45:04;32.70;94.00
15217;DHT22;7711;46.634;14.318;2022-07-05T13:47:33;33.30;91.60
15217;DHT22;7711;46.634;14.318;2022-07-05T13:50:00;33.40;85.00
15217;DHT22;7711;46.634;14.318;2022-07-05T13:52:44;32.60;84.80
15217;DHT22;7711;46.634;14.318;2022-07-05T13:55:13;32.40;87.90
15217;DHT22;7711;46.634;14.318;2022-07-05T13:57:41;32.90;89.10
15217;DHT22;7711;46.634;14.318;2022-07-05T14:00:10;32.60;86.70
15217;DHT22;7711;46.634;14.318;2022-07-05T14:02:41;33.90;88.80
15217;DHT22;7711;46.634;14.318;2022-07-05T14:05:12;35.00;82.80
15217;DHT22;7711;46.634;14.318;2022-07-05T14:07:45;35.60;82.90
15217;DHT22;7711;46.634;14.318;2022-07-05T14:10:14;36.10;77.80
15217;DHT22;7711;46.634;14.318;2022-07-05T14:12:43;36.90;74.70
15217;DHT22;7711;46.634;14.318;2022-07-05T14:15:11;37.80;64.90
15217;DHT22;7711;46.634;14.318;2022-07-05T14:17:38;32.60;70.30
15217;DHT22;7711;46.634;14.318;2022-07-05T14:20:12;32.70;72.90
15217;DHT22;7711;46.634;14.318;2022-07-05T14:22:40;32.30;72.70
15217;DHT22;7711;46.634;14.318;2022-07-05T14:25:07;32.60;77.90
15217;DHT22;7711;46.634;14.318;2022-07-05T14:27:36;33.00;75.10
15217;DHT22;7711;46.634;14.318;2022-07-05T14:30:05;33.20;76.80
15217;DHT22;7711;46.634;14.318;2022-07-05T14:32:36;32.80;71.70
15217;DHT22;7711;46.634;14.318;2022-07-05T14:35:06;34.40;75.40
15217;DHT22;7711;46.634;14.318;2022-07-05T14:37:36;35.40;72.70
15217;DHT22;7711;46.634;14.318;2022-07-05T14:40:04;34.90;68.20
15217;DHT22;7711;46.634;14.318;2022-07-05T14:42:34;34.00;68.20
15217;DHT22;7711;46.634;14.318;2022-07-05T14:45:04;33.30;71.10
15217;DHT22;7711;46.634;14.318;2022-07-05T14:47:33;32.60;69.00
15217;DHT22;7711;46.634;14.318;2022-07-05T14:50:03;32.90;67.60
15217;DHT22;7711;46.634;14.318;2022-07-05T14:52:33;32.90;70.30
15217;DHT22;7711;46.634;14.318;2022-07-05T14:55:01;33.60;72.50
15217;DHT22;7711;46.634;14.318;2022-07-05T14:57:28;33.00;71.70
15217;DHT22;7711;46.634;14.318;2022-07-05T14:59:59;33.30;71.90
15217;DHT22;7711;46.634;14.318;2022-07-05T15:02:28;32.70;71.90
15217;DHT22;7711;46.634;14.318;2022-07-05T15:04:55;31.90;72.60
15217;DHT22;7711;46.634;14.318;2022-07-05T15:07:23;32.00;69.40
15217;DHT22;7711;46.634;14.318;2022-07-05T15:09:53;32.10;72.90
15217;DHT22;7711;46.634;14.318;2022-07-05T15:12:23;31.40;70.70
15217;DHT22;7711;46.634;14.318;2022-07-05T15:14:52;30.80;71.40
15217;DHT22;7711;46.634;14.318;2022-07-05T15:17:23;30.00;73.70
15217;DHT22;7711;46.634;14.318;2022-07-05T15:19:57;29.40;72.40
15217;DHT22;7711;46.634;14.318;2022-07-05T15:22:25;29.50;75.50
15217;DHT22;7711;46.634;14.318;2022-07-05T15:24:53;28.90;77.00
15217;DHT22;7711;46.634;14.318;2022-07-05T15:27:26;28.30;77.70
15217;DHT22;7711;46.634;14.318;2022-07-05T15:29:57;28.00;78.80
15217;DHT22;7711;46.634;14.318;2022-07-05T15:32:25;27.40;86.90
15217;DHT22;7711;46.634;14.318;2022-07-05T15:34:57;26.60;91.60
15217;DHT22;7711;46.634;14.318;2022-07-05T15:37:24;26.10;92.20
15217;DHT22;7711;46.634;14.318;2022-07-05T15:39:57;25.90;93.50
15217;DHT22;7711;46.634;14.318;2022-07-05T15:42:24;25.80;95.10
15217;DHT22;7711;46.634;14.318;2022-07-05T15:44:52;25.70;98.40
15217;DHT22;7711;46.634;14.318;2022-07-05T15:47:20;25.50;99.90